Shinsei Maru — JD2188 — position and weather

sailwx.info

Track history (hours):
 
Tides and Currents Weather Stations Pressure Air Temp Water Temp Dewpoint Dewpoint Depression Visibility Wind Speed Wind Dir Waves Ship Positions

Shinsei Maru

Last reported at 2016-May-05 07:33 UTC. Time now 2016-May-05 18:02 UTC.
Position N 34°06' E 135°03'.

Length 104 m; draft 6.5 m.

Type: Tanker. MMSI: 431301775.

Date/timePositionNaut miles runAvg speedWind from/ knotsBaromVisibWave heightAir tempDewpointWater temp
2016-May-05 07:33N 34°06' E 135°03'4 0.6
2016-May-05 00:06N 34°07' E 135°07'1 1.6
2016-May-04 23:28N 34°08' E 135°07'0 0.2
2016-May-04 22:33N 34°08' E 135°07'0 0.0
2016-May-04 21:33N 34°08' E 135°07'0 0.0
2016-May-04 20:33N 34°08' E 135°07'0 0.1
2016-May-04 19:30N 34°08' E 135°07'0 0.1
2016-May-04 18:33N 34°08' E 135°07'0 0.1
2016-May-04 17:33N 34°08' E 135°07'0 0.0
2016-May-04 16:33N 34°08' E 135°07'0 0.1
2016-May-04 15:32N 34°08' E 135°07'1111.3
2016-May-04 14:31N 33°58' E 135°00'  
2016-Apr-29 05:33N 34°07' E 135°03'3 0.6
2016-Apr-29 00:19N 34°07' E 135°07'0 0.0
2016-Apr-28 22:05N 34°07' E 135°07'1 2.9
2016-Apr-28 21:34N 34°08' E 135°06'0 0.1
2016-Apr-28 20:34N 34°08' E 135°06'175 9.7
2016-Apr-28 02:33N 34°33' E 138°35'6112.2
2016-Apr-27 21:33N 34°52' E 139°46'1413.7
2016-Apr-27 20:33N 34°53' E 140°02'1413.6
2016-Apr-27 19:33N 35°01' E 140°16'1313.0
2016-Apr-27 18:33N 35°09' E 140°29'1211.9
2016-Apr-27 17:33N 35°18' E 140°37'24 0.6
2016-Apr-26 00:20N 35°38' E 140°54'1213.8
2016-Apr-25 23:30N 35°29' E 140°44'5912.0
2016-Apr-25 18:33N 34°56' E 139°44'1313.1
2016-Apr-25 17:33N 35°10' E 139°45'1312.7
2016-Apr-25 16:33N 35°22' E 139°42'1313.1
2016-Apr-25 15:33N 35°31' E 139°54'6 6.3
2016-Apr-25 14:31N 35°31' E 140°02'0 0.0
2016-Apr-25 13:31N 35°31' E 140°02'0 0.0
2016-Apr-25 12:31N 35°31' E 140°02'0 0.0
2016-Apr-25 11:25N 35°31' E 140°02'0 0.0
2016-Apr-25 10:31N 35°31' E 140°02'0 0.0
2016-Apr-25 09:31N 35°31' E 140°02'0 0.0
2016-Apr-25 08:31N 35°31' E 140°02'2 1.6
2016-Apr-25 07:34N 35°32' E 140°01'  
Track history (hours):
 
Tides and Currents Weather Stations Pressure Air Temp Water Temp Dewpoint Dewpoint Depression Visibility Wind Speed Wind Dir Waves Ship Positions

Shinsei Maru

Last reported at 2016-May-05 07:33 UTC. Time now 2016-May-05 18:02 UTC.
Position N 34°06' E 135°03'.

Length 104 m; draft 6.5 m.

Type: Tanker. MMSI: 431301775.

Date/timePositionNaut miles runAvg speedWind from/ knotsBaromVisibWave heightAir tempDewpointWater temp
2016-May-05 07:33N 34°06' E 135°03'4 0.6
2016-May-05 00:06N 34°07' E 135°07'1 1.6
2016-May-04 23:28N 34°08' E 135°07'0 0.2
2016-May-04 22:33N 34°08' E 135°07'0 0.0
2016-May-04 21:33N 34°08' E 135°07'0 0.0
2016-May-04 20:33N 34°08' E 135°07'0 0.1
2016-May-04 19:30N 34°08' E 135°07'0 0.1
2016-May-04 18:33N 34°08' E 135°07'0 0.1
2016-May-04 17:33N 34°08' E 135°07'0 0.0
2016-May-04 16:33N 34°08' E 135°07'0 0.1
2016-May-04 15:32N 34°08' E 135°07'1111.3
2016-May-04 14:31N 33°58' E 135°00'  
2016-Apr-29 05:33N 34°07' E 135°03'3 0.6
2016-Apr-29 00:19N 34°07' E 135°07'0 0.0
2016-Apr-28 22:05N 34°07' E 135°07'1 2.9
2016-Apr-28 21:34N 34°08' E 135°06'0 0.1
2016-Apr-28 20:34N 34°08' E 135°06'175 9.7
2016-Apr-28 02:33N 34°33' E 138°35'6112.2
2016-Apr-27 21:33N 34°52' E 139°46'1413.7
2016-Apr-27 20:33N 34°53' E 140°02'1413.6
2016-Apr-27 19:33N 35°01' E 140°16'1313.0
2016-Apr-27 18:33N 35°09' E 140°29'1211.9
2016-Apr-27 17:33N 35°18' E 140°37'24 0.6
2016-Apr-26 00:20N 35°38' E 140°54'1213.8
2016-Apr-25 23:30N 35°29' E 140°44'5912.0
2016-Apr-25 18:33N 34°56' E 139°44'1313.1
2016-Apr-25 17:33N 35°10' E 139°45'1312.7
2016-Apr-25 16:33N 35°22' E 139°42'1313.1
2016-Apr-25 15:33N 35°31' E 139°54'6 6.3
2016-Apr-25 14:31N 35°31' E 140°02'0 0.0
2016-Apr-25 13:31N 35°31' E 140°02'0 0.0
2016-Apr-25 12:31N 35°31' E 140°02'0 0.0
2016-Apr-25 11:25N 35°31' E 140°02'0 0.0
2016-Apr-25 10:31N 35°31' E 140°02'0 0.0
2016-Apr-25 09:31N 35°31' E 140°02'0 0.0
2016-Apr-25 08:31N 35°31' E 140°02'2 1.6
2016-Apr-25 07:34N 35°32' E 140°01'  

Dump ship's entire track history